Airfield :
LOGIN :

Register | Disclaimer

   EN    FR    IT 

 










Legend :    VFR   Marginal VFR   IFR   Intensive IFR   Very Intensive IFR
Visi :
Ceiling :
>= 8 km
>= 3000ft
5 to 8 km
1000 to 3000 ft
1500m to 5 km
500 to 1000 ft
800 to 1500m
200 to 500 ft
< 800m
< 200 ft
Symbols :   Thunderstorms  Fog  Heavy snow  Heavy precipitations  Wind > 20 kt
SIGMETs :     Misc.  Thunderstorms  Icing  Turbulence  Mountain Waves  Volcanic Ashes






- Airport Elevation : 125 ft
- IATA code : MGL


EDLN - Mönchengladbach

CURRENT METAR :
  • 211150Z 16006KT 130V190 CAVOK 16/11 Q1002

EXPIRED METARs :
  • 211120Z 15006KT 110V180 CAVOK 15/11 Q1002
  • 211050Z 15006KT CAVOK 14/10 Q1003
  • 211020Z 14007KT CAVOK 13/10 Q1003
  • 210950Z 14007KT CAVOK 13/11 Q1003
  • 210920Z 15006KT 110V170 CAVOK 13/11 Q1004

TAF TAF EDLN
Valid from the 21 at 12:00 until the 21 at 21:00 UTC


211100Z 2112/2121 15007KT 9999 BKN040
BECMG 2112/2114 20012KT
TEMPO 2113/2117 22015G25KT



MET'MAP, your aeronautical weather chart ! - Copyright ORBIFLY December 2007 - Disclaimer

ORBIFLY MET'MAP TEAM :

Programming & Development : Alexandra Zaïnal
Concept & original design : Baudouin d'Aumeries
Assistance for programming : Marc-Olivier Méhu
Technical & hardware support : Manuel Goepfert

Contact : metmap@orbifly.com




SOURCES & CREDITS :

   NOAA